Time;durP1;ratioP1;P1;durP2;ratioP2;P2;SDS_P1;SDS_P2;PMS_P1;PMS_P2;Temp;Humidity;BMP_temperature;BMP_pressure;BME280_temperature;BME280_humidity;BME280_pressure;Samples;Min_cycle;Max_cycle;Signal;HPM_P1;HPM_P2
2024/02/15 00:00:16;;;;;;;5;3.3;;;;;;;7.86;75.55957;942.6728;;;;
2024/02/15 00:02:39;;;;;;;6.3;2.9;;;;;;;7.83;75.53223;942.6158;;;;
2024/02/15 00:05:04;;;;;;;5.1;3;;;;;;;7.74;75.78711;942.6359;;;;
2024/02/15 00:07:29;;;;;;;5.5;3.1;;;;;;;7.81;75.73145;942.6171;;;;
2024/02/15 00:09:55;;;;;;;4.8;3.1;;;;;;;7.75;75.90332;942.6292;;;;
2024/02/15 00:12:20;;;;;;;4.4;3.1;;;;;;;7.84;75.7041;942.6088;;;;
2024/02/15 00:14:45;;;;;;;4.9;2.9;;;;;;;7.81;75.73145;942.5747;;;;
2024/02/15 00:17:11;;;;;;;3.8;2.8;;;;;;;7.84;75.81543;942.5469;;;;
2024/02/15 00:19:36;;;;;;;5.2;2.9;;;;;;;7.84;75.95215;942.5399;;;;
2024/02/15 00:22:01;;;;;;;5.1;3;;;;;;;7.81;75.98145;942.5367;;;;
2024/02/15 00:24:26;;;;;;;5.5;3.2;;;;;;;7.8;75.90039;942.5764;;;;
2024/02/15 00:26:51;;;;;;;3.7;2.3;;;;;;;7.78;75.5791;942.5531;;;;
2024/02/15 00:29:16;;;;;;;3.3;2.5;;;;;;;7.77;75.3623;942.6003;;;;
2024/02/15 00:31:41;;;;;;;3.4;2.2;;;;;;;7.84;74.39746;942.55;;;;
2024/02/15 00:34:06;;;;;;;1.7;1.4;;;;;;;8.1;72.35547;942.6611;;;;
2024/02/15 00:36:32;;;;;;;2.7;1.5;;;;;;;8.13;72.03027;942.7261;;;;
2024/02/15 00:38:56;;;;;;;2.8;1.5;;;;;;;8.03;72.50195;942.6586;;;;
2024/02/15 00:41:22;;;;;;;3.2;1.7;;;;;;;7.98;72.0166;942.66;;;;
2024/02/15 00:43:47;;;;;;;3.7;2.2;;;;;;;7.99;72.2793;942.634;;;;
2024/02/15 00:46:12;;;;;;;3;1.8;;;;;;;7.92;72.77734;942.6181;;;;
2024/02/15 00:48:37;;;;;;;3.3;2.2;;;;;;;7.91;73.42285;942.6559;;;;
2024/02/15 00:51:03;;;;;;;3;2.3;;;;;;;7.91;73.79688;942.6067;;;;
2024/02/15 00:53:27;;;;;;;3.8;2.6;;;;;;;7.88;74.21191;942.6122;;;;
2024/02/15 00:55:52;;;;;;;2.8;2.3;;;;;;;7.89;74.33887;942.6934;;;;
2024/02/15 00:58:17;;;;;;;3.7;2.3;;;;;;;7.86;74.78809;942.5815;;;;
2024/02/15 01:00:42;;;;;;;3.1;2.2;;;;;;;7.76;75.25879;942.6278;;;;
2024/02/15 01:03:08;;;;;;;3.3;2.1;;;;;;;7.78;75.06836;942.7188;;;;
2024/02/15 01:05:33;;;;;;;3.5;2.2;;;;;;;7.78;75.34082;942.653;;;;
2024/02/15 01:07:58;;;;;;;3.3;2;;;;;;;7.74;75.6748;942.6797;;;;
2024/02/15 01:10:23;;;;;;;3.9;2.2;;;;;;;7.7;75.79199;942.6467;;;;
2024/02/15 01:12:48;;;;;;;2.6;2.1;;;;;;;7.73;75.73047;942.6848;;;;
2024/02/15 01:15:14;;;;;;;2.4;1.9;;;;;;;7.71;75.77051;942.6764;;;;
2024/02/15 01:17:39;;;;;;;3;2.1;;;;;;;7.76;75.79199;942.5938;;;;
2024/02/15 01:20:03;;;;;;;2.7;2;;;;;;;7.77;75.90625;942.6114;;;;
2024/02/15 01:22:28;;;;;;;4.1;2.2;;;;;;;7.67;76.17285;942.5833;;;;
2024/02/15 01:24:53;;;;;;;2.9;2;;;;;;;7.63;76.36914;942.4905;;;;
2024/02/15 01:27:19;;;;;;;5.5;2.1;;;;;;;7.69;76.27637;942.5307;;;;
2024/02/15 01:29:44;;;;;;;2.8;2.1;;;;;;;7.71;76.05469;942.5947;;;;
2024/02/15 01:32:09;;;;;;;2.5;1.8;;;;;;;7.67;76.37695;942.5969;;;;
2024/02/15 01:34:34;;;;;;;2.9;1.9;;;;;;;7.66;76.54492;942.5839;;;;
2024/02/15 01:37:00;;;;;;;3.2;2.1;;;;;;;7.65;76.23633;942.5962;;;;
2024/02/15 01:39:24;;;;;;;1.8;1.6;;;;;;;7.69;76.09668;942.568;;;;
2024/02/15 01:41:50;;;;;;;2.1;1.8;;;;;;;7.73;75.78711;942.5535;;;;
2024/02/15 01:44:15;;;;;;;3.4;2.1;;;;;;;7.68;76.15137;942.4695;;;;
2024/02/15 01:46:40;;;;;;;2.7;1.9;;;;;;;7.71;76.18066;942.5037;;;;
2024/02/15 01:49:07;;;;;;;2.5;2;;;;;;;7.65;76.02051;942.4963;;;;
2024/02/15 01:51:30;;;;;;;3.4;2.1;;;;;;;7.67;76.00293;942.4764;;;;
2024/02/15 01:53:55;;;;;;;3.8;1.9;;;;;;;7.71;76.04297;942.5359;;;;
2024/02/15 01:56:20;;;;;;;3.8;2.1;;;;;;;7.72;76.08008;942.4984;;;;
2024/02/15 01:58:45;;;;;;;5.1;2.2;;;;;;;7.72;75.73828;942.5187;;;;
2024/02/15 02:01:10;;;;;;;4.5;2.6;;;;;;;7.69;76.18555;942.5037;;;;
2024/02/15 02:03:35;;;;;;;3.5;2.3;;;;;;;7.68;76.28809;942.5353;;;;
2024/02/15 02:06:00;;;;;;;4.8;2.4;;;;;;;7.67;76.47754;942.5095;;;;
2024/02/15 02:08:26;;;;;;;3.2;2.2;;;;;;;7.69;76.08691;942.481;;;;
2024/02/15 02:10:51;;;;;;;3.4;2.1;;;;;;;7.65;76.37402;942.4647;;;;
2024/02/15 02:13:17;;;;;;;3.1;2.1;;;;;;;7.62;76.19727;942.2999;;;;
2024/02/15 02:15:41;;;;;;;2.7;2;;;;;;;7.57;76.30078;942.3663;;;;
2024/02/15 02:18:08;;;;;;;4.6;1.9;;;;;;;7.49;76.43555;942.3681;;;;
2024/02/15 02:20:32;;;;;;;2.9;2;;;;;;;7.51;76.13086;942.2902;;;;
2024/02/15 02:22:57;;;;;;;18.9;17;;;;;;;7.56;75.66602;942.3195;;;;
2024/02/15 02:25:22;;;;;;;18;16.3;;;;;;;7.53;75.89746;942.359;;;;
2024/02/15 02:27:47;;;;;;;7.7;7;;;;;;;7.61;75.73242;942.3069;;;;
2024/02/15 02:30:14;;;;;;;4.2;3.8;;;;;;;7.58;76.19043;942.3215;;;;
2024/02/15 02:32:38;;;;;;;3.6;2.6;;;;;;;7.49;76.42383;942.3611;;;;
2024/02/15 02:35:03;;;;;;;2.2;1.8;;;;;;;7.46;76.45313;942.3722;;;;
2024/02/15 02:37:28;;;;;;;2;1.6;;;;;;;7.44;76.38086;942.4253;;;;
2024/02/15 02:39:52;;;;;;;2.9;2;;;;;;;7.47;76.38672;942.4168;;;;
2024/02/15 02:42:17;;;;;;;3.5;2;;;;;;;7.44;76.5293;942.3652;;;;
2024/02/15 02:44:42;;;;;;;3.8;2.1;;;;;;;7.44;76.69824;942.419;;;;
2024/02/15 02:47:08;;;;;;;2.9;1.9;;;;;;;7.42;76.74121;942.3647;;;;
2024/02/15 02:49:33;;;;;;;2.8;1.8;;;;;;;7.45;76.37207;942.3092;;;;
2024/02/15 02:51:58;;;;;;;2.6;1.5;;;;;;;7.47;75.95605;942.2876;;;;
2024/02/15 02:54:23;;;;;;;2.4;1.5;;;;;;;7.45;75.72656;942.2608;;;;
2024/02/15 02:57:08;;;;;;;2.5;1.6;;;;;;;7.38;75.80273;942.2665;;;;
2024/02/15 02:59:33;;;;;;;2;1.5;;;;;;;7.29;76.06055;942.249;;;;
2024/02/15 03:01:58;;;;;;;2.6;1.4;;;;;;;7.19;76.14453;942.238;;;;
2024/02/15 03:04:23;;;;;;;3;2.1;;;;;;;7.21;76.01172;942.2556;;;;
2024/02/15 03:06:48;;;;;;;3.9;2.2;;;;;;;7.21;75.45703;942.2177;;;;
2024/02/15 03:09:14;;;;;;;4;2.2;;;;;;;7.16;75.99121;942.2822;;;;
2024/02/15 03:11:38;;;;;;;4.4;2;;;;;;;7.09;76.53418;942.1813;;;;
2024/02/15 03:14:04;;;;;;;2.4;1.9;;;;;;;7.17;76.23145;942.1584;;;;
2024/02/15 03:16:29;;;;;;;2.8;1.7;;;;;;;7.16;76.33203;942.2087;;;;
2024/02/15 03:18:54;;;;;;;4.1;2;;;;;;;7.09;76.76074;942.2534;;;;
2024/02/15 03:21:20;;;;;;;2.7;2;;;;;;;7.09;76.81738;942.3057;;;;
2024/02/15 03:23:44;;;;;;;3.3;2.5;;;;;;;6.99;76.95898;942.3047;;;;
2024/02/15 03:26:11;;;;;;;3.1;2.4;;;;;;;6.87;77.55859;942.2642;;;;
2024/02/15 03:28:36;;;;;;;3.7;2;;;;;;;6.79;77.89453;942.2495;;;;
2024/02/15 03:31:00;;;;;;;2.3;1.8;;;;;;;6.82;77.77539;942.2603;;;;
2024/02/15 03:33:27;;;;;;;3.2;2.6;;;;;;;6.76;77.88965;942.2289;;;;
2024/02/15 03:35:49;;;;;;;3.8;2.8;;;;;;;6.66;77.90527;942.2916;;;;
2024/02/15 03:38:15;;;;;;;4.7;3.4;;;;;;;6.62;77.91016;942.1916;;;;
2024/02/15 03:40:40;;;;;;;4.6;3;;;;;;;6.66;77.89453;942.217;;;;
2024/02/15 03:43:06;;;;;;;3;2.4;;;;;;;6.76;77.57324;942.2312;;;;
2024/02/15 03:45:30;;;;;;;2.1;1.8;;;;;;;6.64;78.0498;942.2254;;;;
2024/02/15 03:47:56;;;;;;;3;1.9;;;;;;;6.7;77.86816;942.1868;;;;
2024/02/15 03:50:21;;;;;;;4.2;1.8;;;;;;;6.6;78.08789;942.1685;;;;
2024/02/15 03:52:46;;;;;;;3.7;2.2;;;;;;;6.52;78.27539;942.2275;;;;
2024/02/15 03:55:12;;;;;;;2.2;2;;;;;;;6.46;78.25391;942.1476;;;;
2024/02/15 03:57:38;;;;;;;3;2;;;;;;;6.32;78.47852;942.1263;;;;
2024/02/15 04:00:03;;;;;;;2.7;1.8;;;;;;;6.21;78.9541;942.1472;;;;
2024/02/15 04:02:35;;;;;;;1.9;1.6;;;;;;;6.16;79.19434;942.173;;;;
2024/02/15 04:05:00;;;;;;;1.6;1.4;;;;;;;6.3;78.72168;942.2417;;;;
2024/02/15 04:07:26;;;;;;;1.6;1.5;;;;;;;6.33;78.62695;942.269;;;;
2024/02/15 04:09:50;;;;;;;2;1.7;;;;;;;6.32;78.66895;942.1917;;;;
2024/02/15 04:12:16;;;;;;;3.1;1.6;;;;;;;6.29;78.78613;942.2224;;;;
2024/02/15 04:14:40;;;;;;;2.8;1.6;;;;;;;6.22;78.78809;942.18;;;;
2024/02/15 04:17:05;;;;;;;2;1.5;;;;;;;6.05;79.29688;942.1947;;;;
2024/02/15 04:19:30;;;;;;;2.4;1.7;;;;;;;5.92;79.67969;942.285;;;;
2024/02/15 04:21:57;;;;;;;2.2;1.7;;;;;;;5.85;80.18652;942.2753;;;;
2024/02/15 04:24:21;;;;;;;2.8;1.8;;;;;;;5.91;80.10742;942.2342;;;;
2024/02/15 04:26:48;;;;;;;2.9;1.7;;;;;;;5.92;79.96289;942.2567;;;;
2024/02/15 04:29:12;;;;;;;2.5;1.8;;;;;;;5.92;79.72559;942.2465;;;;
2024/02/15 04:31:39;;;;;;;3.4;1.9;;;;;;;5.98;79.40918;942.3093;;;;
2024/02/15 04:34:01;;;;;;;2.7;1.7;;;;;;;5.95;79.34668;942.3194;;;;
2024/02/15 04:36:27;;;;;;;3.3;2;;;;;;;5.89;79.4375;942.2554;;;;
2024/02/15 04:38:52;;;;;;;3.4;1.9;;;;;;;5.83;79.4375;942.3204;;;;
2024/02/15 04:41:19;;;;;;;2.6;1.8;;;;;;;5.68;79.74707;942.3222;;;;
2024/02/15 04:43:44;;;;;;;3.5;2.2;;;;;;;5.65;79.7666;942.2906;;;;
2024/02/15 04:46:07;;;;;;;2.5;1.9;;;;;;;5.61;79.93848;942.278;;;;
2024/02/15 04:48:32;;;;;;;4.7;2.7;;;;;;;5.59;80.44336;942.345;;;;
2024/02/15 04:50:59;;;;;;;6.7;3;;;;;;;5.61;80.91016;942.3563;;;;
2024/02/15 04:53:23;;;;;;;4.7;3.1;;;;;;;5.6;80.56934;942.3572;;;;
2024/02/15 04:55:48;;;;;;;7;3.2;;;;;;;5.61;80.52441;942.3876;;;;
2024/02/15 04:58:12;;;;;;;9.3;4.3;;;;;;;5.62;80.32422;942.3408;;;;
2024/02/15 05:00:38;;;;;;;8.4;4.5;;;;;;;5.63;80.24902;942.2646;;;;
2024/02/15 05:03:04;;;;;;;8.5;3.6;;;;;;;5.6;79.99219;942.387;;;;
2024/02/15 05:05:29;;;;;;;6.8;3.3;;;;;;;5.5;80.21191;942.3633;;;;
2024/02/15 05:07:53;;;;;;;4.2;2.2;;;;;;;5.49;80.21973;942.3423;;;;
2024/02/15 05:10:19;;;;;;;2.9;1.8;;;;;;;5.44;80.40332;942.347;;;;
2024/02/15 05:12:44;;;;;;;3.2;1.5;;;;;;;5.46;80.18262;942.3784;;;;
2024/02/15 05:15:10;;;;;;;2.7;1.5;;;;;;;5.33;79.99902;942.3743;;;;
2024/02/15 05:18:09;;;;;;;2.4;1.4;;;;;;;5.3;80.0957;942.3826;;;;
2024/02/15 05:20:34;;;;;;;3.1;1.6;;;;;;;5.1;80.8125;942.3269;;;;
2024/02/15 05:22:59;;;;;;;1.8;1.4;;;;;;;5.11;81.04102;942.3851;;;;
2024/02/15 05:25:26;;;;;;;1.9;1.6;;;;;;;5.17;80.92773;942.3784;;;;
2024/02/15 05:27:49;;;;;;;2.4;1.6;;;;;;;5.11;80.82715;942.3694;;;;
2024/02/15 05:30:14;;;;;;;3.1;2.3;;;;;;;5.16;80.8584;942.3354;;;;
2024/02/15 05:32:43;;;;;;;4.5;2.2;;;;;;;5.14;80.75098;942.3387;;;;
2024/02/15 05:35:05;;;;;;;3.8;2.3;;;;;;;4.99;81.09766;942.3323;;;;
2024/02/15 05:37:30;;;;;;;6;2.1;;;;;;;5.11;80.69141;942.3646;;;;
2024/02/15 05:39:55;;;;;;;3.1;2;;;;;;;4.98;80.86914;942.3951;;;;
2024/02/15 05:42:20;;;;;;;2.8;1.9;;;;;;;5.08;80.68457;942.4061;;;;
2024/02/15 05:44:45;;;;;;;3.4;1.7;;;;;;;5.03;80.6875;942.4941;;;;
2024/02/15 05:47:11;;;;;;;4.5;2.1;;;;;;;4.97;81.03613;942.4506;;;;
2024/02/15 05:49:35;;;;;;;2.8;2.1;;;;;;;4.85;81.27344;942.4455;;;;
2024/02/15 05:52:00;;;;;;;4.1;2.3;;;;;;;4.76;81.75195;942.4378;;;;
2024/02/15 05:54:25;;;;;;;5.3;3.2;;;;;;;4.78;81.87695;942.5489;;;;
2024/02/15 05:56:51;;;;;;;4.2;3;;;;;;;4.79;81.31738;942.5675;;;;
2024/02/15 05:59:16;;;;;;;6;2.8;;;;;;;4.72;81.23828;942.5894;;;;
2024/02/15 06:01:41;;;;;;;8.5;3.9;;;;;;;4.75;81.37793;942.5574;;;;
2024/02/15 06:04:08;;;;;;;8.8;4.8;;;;;;;4.75;82.25684;942.5527;;;;
2024/02/15 06:06:32;;;;;;;9.4;5.6;;;;;;;4.74;81.94141;942.5399;;;;
2024/02/15 06:08:59;;;;;;;9.9;5.4;;;;;;;4.61;82.16016;942.5675;;;;
2024/02/15 06:11:22;;;;;;;9.3;4.8;;;;;;;4.59;82.6084;942.5549;;;;
2024/02/15 06:13:47;;;;;;;7.5;4.5;;;;;;;4.66;82.37305;942.5111;;;;
2024/02/15 06:16:12;;;;;;;9;4.8;;;;;;;4.68;81.7793;942.5364;;;;
2024/02/15 06:18:37;;;;;;;9.8;5.1;;;;;;;4.6;82.22754;942.4961;;;;
2024/02/15 06:21:02;;;;;;;9.2;5.5;;;;;;;4.77;81.58398;942.468;;;;
2024/02/15 06:23:27;;;;;;;8.8;4.9;;;;;;;4.76;81.25391;942.5323;;;;
2024/02/15 06:25:52;;;;;;;5.9;3.9;;;;;;;4.72;81.27148;942.5643;;;;
2024/02/15 06:39:38;;;;;;;5.2;3.5;;;;;;;4.72;81.21484;942.5405;;;;
2024/02/15 06:40:23;;;;;;;6;2.8;;;;;;;4.5;81.48535;942.5804;;;;
2024/02/15 06:42:48;;;;;;;3.4;2.5;;;;;;;4.46;81.99805;942.5372;;;;
2024/02/15 06:45:14;;;;;;;5.6;2.8;;;;;;;4.52;81.89648;942.572;;;;
2024/02/15 06:47:38;;;;;;;4;2.2;;;;;;;4.52;82.21191;942.5756;;;;
2024/02/15 06:50:03;;;;;;;4.2;2.1;;;;;;;4.56;82.51172;942.563;;;;
2024/02/15 06:52:28;;;;;;;4.8;2.8;;;;;;;4.79;81.87891;942.5262;;;;
2024/02/15 06:54:54;;;;;;;4.4;2.5;;;;;;;4.73;81.91406;942.5549;;;;
2024/02/15 06:57:19;;;;;;;4.1;2.9;;;;;;;4.89;81.4375;942.5186;;;;
2024/02/15 06:59:46;;;;;;;6.8;3.9;;;;;;;5.04;80.68945;942.4419;;;;
2024/02/15 07:02:09;;;;;;;8.3;4.7;;;;;;;5.37;80.11914;942.4855;;;;
2024/02/15 07:04:34;;;;;;;5.7;4.1;;;;;;;6.1;77.46484;942.4747;;;;
2024/02/15 07:06:59;;;;;;;5.7;3.5;;;;;;;6.48;75.01172;942.4299;;;;
2024/02/15 07:09:24;;;;;;;6.2;3.2;;;;;;;7.07;73.1543;942.4056;;;;
2024/02/15 07:11:49;;;;;;;4.8;3.2;;;;;;;7.34;71.70508;942.3976;;;;
2024/02/15 07:14:16;;;;;;;6.3;3.9;;;;;;;7.84;69.37109;942.3781;;;;
2024/02/15 07:16:40;;;;;;;9.7;5.1;;;;;;;8.29;67.92188;942.3884;;;;
2024/02/15 07:19:05;;;;;;;8.1;4.5;;;;;;;8.76;66.12109;942.387;;;;
2024/02/15 07:21:31;;;;;;;7.4;3.9;;;;;;;9.22;64.32422;942.3367;;;;
2024/02/15 07:23:56;;;;;;;6.3;3.6;;;;;;;9.37;63.65234;942.3111;;;;
2024/02/15 07:26:24;;;;;;;5.9;3.3;;;;;;;9.32;62.9043;942.3124;;;;
2024/02/15 07:28:46;;;;;;;4;3.2;;;;;;;9.81;61.91504;942.2805;;;;
2024/02/15 07:31:10;;;;;;;8.2;4.2;;;;;;;9.86;62.16211;942.2277;;;;
2024/02/15 07:33:37;;;;;;;10.1;4.5;;;;;;;10.19;61.37793;942.2417;;;;
2024/02/15 07:36:01;;;;;;;12.1;4.9;;;;;;;10.35;60.78418;942.2617;;;;
2024/02/15 07:38:26;;;;;;;12.5;5.7;;;;;;;10.58;60.16699;942.1615;;;;
2024/02/15 07:40:51;;;;;;;8.1;4.3;;;;;;;10.64;60.25293;942.1292;;;;
2024/02/15 07:43:16;;;;;;;6.3;4.1;;;;;;;10.75;60.43066;942.0903;;;;
2024/02/15 07:45:41;;;;;;;5.4;3.2;;;;;;;10.81;59.94629;942.0751;;;;
2024/02/15 07:48:06;;;;;;;4.4;2.8;;;;;;;10.86;59.37012;942.0761;;;;
2024/02/15 07:50:31;;;;;;;2.3;2;;;;;;;11.19;58.58105;942.0212;;;;
2024/02/15 07:52:56;;;;;;;3.1;2.1;;;;;;;11.27;58.07715;941.962;;;;
2024/02/15 07:55:21;;;;;;;2.4;2;;;;;;;11.43;57.62891;942.024;;;;
2024/02/15 07:57:48;;;;;;;3;1.9;;;;;;;11.62;57.79297;941.9587;;;;
2024/02/15 08:00:12;;;;;;;1.7;1.6;;;;;;;11.68;56.76953;941.9761;;;;
2024/02/15 08:02:37;;;;;;;1.6;1.4;;;;;;;11.86;56.02637;942.0082;;;;
2024/02/15 08:05:05;;;;;;;5.1;3.2;;;;;;;12.11;55.46289;941.9119;;;;
2024/02/15 08:07:31;;;;;;;3.6;2;;;;;;;12.59;54.75488;941.9581;;;;
2024/02/15 08:09:53;;;;;;;6;3.4;;;;;;;13.09;54.0498;941.959;;;;
2024/02/15 08:12:18;;;;;;;6.1;4.7;;;;;;;13.24;52.20605;941.9213;;;;
2024/02/15 08:14:42;;;;;;;2.7;1.8;;;;;;;13.52;51.7793;941.8284;;;;
2024/02/15 08:17:08;;;;;;;4.7;2;;;;;;;13.65;51.32422;941.8331;;;;
2024/02/15 08:19:32;;;;;;;1.8;1.4;;;;;;;13.88;49.83105;941.7589;;;;
2024/02/15 08:21:57;;;;;;;3.2;1.4;;;;;;;14.01;49.24805;941.675;;;;
2024/02/15 08:24:23;;;;;;;3.8;2;;;;;;;14.34;48.24902;941.6703;;;;
2024/02/15 08:26:48;;;;;;;6.6;2.8;;;;;;;14.56;48.03125;941.6092;;;;
2024/02/15 08:29:14;;;;;;;9.3;5.1;;;;;;;15.18;48.27344;941.5505;;;;
2024/02/15 08:31:38;;;;;;;4.1;3.2;;;;;;;15.32;45.29785;941.511;;;;
2024/02/15 08:34:05;;;;;;;4.8;3.3;;;;;;;15.09;46.37012;941.5019;;;;
2024/02/15 08:36:28;;;;;;;6.1;3.1;;;;;;;14.67;47.17773;941.4997;;;;
2024/02/15 08:38:53;;;;;;;4.9;3.2;;;;;;;14.57;47.49023;941.473;;;;
2024/02/15 08:41:20;;;;;;;5;2.4;;;;;;;14.45;47.57031;941.421;;;;
2024/02/15 08:43:43;;;;;;;4.7;2.7;;;;;;;14.38;47.66602;941.4629;;;;
2024/02/15 08:46:09;;;;;;;4.9;3;;;;;;;14.47;48.06738;941.3705;;;;
2024/02/15 08:48:34;;;;;;;7.3;3.1;;;;;;;14.39;48.09375;941.4341;;;;
2024/02/15 08:50:59;;;;;;;3.9;2.1;;;;;;;14.39;48.73828;941.4492;;;;
2024/02/15 08:53:24;;;;;;;4.6;1.9;;;;;;;14.57;47.81348;941.376;;;;
2024/02/15 08:55:49;;;;;;;3.9;2.4;;;;;;;14.75;47.1875;941.3705;;;;
2024/02/15 08:58:14;;;;;;;6.2;2.2;;;;;;;14.58;47.27246;941.3824;;;;
2024/02/15 09:00:44;;;;;;;5;2;;;;;;;14.6;48.23242;941.4369;;;;
2024/02/15 09:03:05;;;;;;;3.4;1.7;;;;;;;14.68;47.01855;941.3818;;;;
2024/02/15 09:05:29;;;;;;;3.8;1.9;;;;;;;15.09;46.95898;941.347;;;;
2024/02/15 09:07:54;;;;;;;4;2.6;;;;;;;15.37;46.87402;941.3247;;;;
2024/02/15 09:10:22;;;;;;;8.3;2.6;;;;;;;15.69;45.9834;941.3345;;;;
2024/02/15 09:12:47;;;;;;;4.4;2.1;;;;;;;15.87;45.00879;941.2816;;;;
2024/02/15 09:15:10;;;;;;;4.4;1.9;;;;;;;16.36;44.00684;941.347;;;;
2024/02/15 09:17:38;;;;;;;4.1;2.2;;;;;;;16.94;43.63477;941.3011;;;;
2024/02/15 09:20:00;;;;;;;2.7;1.5;;;;;;;17.12;41.55469;941.2377;;;;
2024/02/15 09:22:27;;;;;;;3.7;1.7;;;;;;;17.39;41.55762;941.1953;;;;
2024/02/15 09:24:51;;;;;;;3.3;2.4;;;;;;;17.71;40.31055;941.1166;;;;
2024/02/15 09:27:16;;;;;;;3;2.1;;;;;;;17.95;38.97363;941.0642;;;;
2024/02/15 09:29:42;;;;;;;4.8;2.7;;;;;;;18.2;39.48438;941.0254;;;;
2024/02/15 09:32:06;;;;;;;5.6;3.5;;;;;;;18.41;38.03809;940.9684;;;;
2024/02/15 09:34:32;;;;;;;6.9;3.6;;;;;;;18.58;37.0293;940.9375;;;;
2024/02/15 09:36:57;;;;;;;3;2;;;;;;;18.41;36.86426;940.8973;;;;
2024/02/15 09:39:22;;;;;;;2.3;1.9;;;;;;;18.76;37.18457;940.8164;;;;
2024/02/15 09:41:53;;;;;;;2.8;1.8;;;;;;;19.07;37.73535;940.8434;;;;
2024/02/15 09:44:13;;;;;;;4.2;2.2;;;;;;;19.4;37.53027;940.8526;;;;
2024/02/15 09:46:38;;;;;;;4.9;1.6;;;;;;;19.33;36.37012;940.825;;;;
2024/02/15 09:49:03;;;;;;;3.6;1.3;;;;;;;19.5;36.50098;940.8606;;;;
2024/02/15 09:51:30;;;;;;;3;1.3;;;;;;;19.51;36.3623;940.8215;;;;
2024/02/15 09:53:54;;;;;;;1.3;1;;;;;;;19.55;34.58203;940.7629;;;;
2024/02/15 09:56:19;;;;;;;1.8;0.8;;;;;;;19.78;34.20313;940.7397;;;;
2024/02/15 09:58:44;;;;;;;1;0.9;;;;;;;19.79;35.45215;940.7371;;;;
2024/02/15 10:01:09;;;;;;;2;1;;;;;;;20;35.80664;940.7358;;;;
2024/02/15 10:03:34;;;;;;;1.2;0.9;;;;;;;20.41;35.4668;940.663;;;;
2024/02/15 10:05:59;;;;;;;1.9;0.8;;;;;;;20.37;34.26074;940.637;;;;
2024/02/15 10:08:24;;;;;;;1.2;1;;;;;;;20.6;33.87012;940.6164;;;;
2024/02/15 10:10:49;;;;;;;1.1;1;;;;;;;20.44;34.53516;940.5543;;;;
2024/02/15 10:13:15;;;;;;;1.5;1.1;;;;;;;20.57;33.92578;940.5947;;;;
2024/02/15 10:15:40;;;;;;;2.4;1.5;;;;;;;20.74;33.44824;940.5137;;;;
2024/02/15 10:18:05;;;;;;;3.3;1.1;;;;;;;20.58;33.99707;940.4972;;;;
2024/02/15 10:20:31;;;;;;;1.3;1;;;;;;;20.75;34.09082;940.3953;;;;
2024/02/15 10:22:56;;;;;;;2;1.2;;;;;;;20.8;33.97852;940.389;;;;
2024/02/15 10:25:20;;;;;;;1.3;1;;;;;;;21.03;33.96094;940.368;;;;
2024/02/15 10:27:46;;;;;;;2.3;1.1;;;;;;;21.04;34.04297;940.3338;;;;
2024/02/15 10:30:10;;;;;;;2.5;1.1;;;;;;;20.75;32.92285;940.2802;;;;
2024/02/15 10:32:36;;;;;;;1.9;1;;;;;;;20.92;33.61426;940.2614;;;;
2024/02/15 10:35:04;;;;;;;2.2;1.1;;;;;;;20.96;32.75195;940.2181;;;;
2024/02/15 10:37:26;;;;;;;1.8;1.1;;;;;;;21.2;32.4541;940.1947;;;;
2024/02/15 10:39:51;;;;;;;2;1;;;;;;;21.76;33.06836;940.0772;;;;
2024/02/15 10:42:16;;;;;;;3.4;1.8;;;;;;;21.77;33.54883;940.0389;;;;
2024/02/15 10:44:43;;;;;;;2.4;1.5;;;;;;;21.99;32.73438;939.999;;;;
2024/02/15 10:47:07;;;;;;;2.5;1.5;;;;;;;21.97;32.62695;939.9658;;;;
2024/02/15 10:49:31;;;;;;;2.4;1.4;;;;;;;22.19;31.62305;939.9666;;;;
2024/02/15 10:51:56;;;;;;;5;3;;;;;;;22.24;31.08789;939.8621;;;;
2024/02/15 10:54:21;;;;;;;3.4;2;;;;;;;22.46;30.97363;939.8688;;;;
2024/02/15 10:56:46;;;;;;;2.7;1.9;;;;;;;22.35;31.25879;939.7903;;;;
2024/02/15 10:59:13;;;;;;;2.5;1.4;;;;;;;22.07;32.02539;939.7569;;;;
2024/02/15 11:01:37;;;;;;;2.5;1.6;;;;;;;21.94;31.95703;939.6883;;;;
2024/02/15 11:04:02;;;;;;;2.6;1.3;;;;;;;21.35;31.97168;939.6937;;;;
2024/02/15 11:06:27;;;;;;;1.9;1.4;;;;;;;21.35;32.38281;939.6596;;;;
2024/02/15 11:08:53;;;;;;;2.2;1.2;;;;;;;21.76;32.96289;939.6063;;;;
2024/02/15 11:11:18;;;;;;;1.7;1.1;;;;;;;21.93;32.62402;939.5753;;;;
2024/02/15 11:13:43;;;;;;;1.8;1.2;;;;;;;21.59;32.54004;939.5377;;;;
2024/02/15 11:16:08;;;;;;;1.1;0.9;;;;;;;21.39;32.90039;939.4922;;;;
2024/02/15 11:18:33;;;;;;;1.8;1.1;;;;;;;21.03;32.91992;939.4708;;;;
2024/02/15 11:20:59;;;;;;;1.3;1;;;;;;;20.86;33.76074;939.3912;;;;
2024/02/15 11:23:23;;;;;;;2.5;1.3;;;;;;;20.89;33.56543;939.3369;;;;
2024/02/15 11:25:48;;;;;;;1.9;0.8;;;;;;;20.86;33.83105;939.2925;;;;
2024/02/15 11:28:14;;;;;;;2;0.8;;;;;;;20.94;33.65039;939.2092;;;;
2024/02/15 11:30:38;;;;;;;1.1;0.9;;;;;;;20.89;33.19043;939.2147;;;;
2024/02/15 11:33:03;;;;;;;0.7;0.7;;;;;;;20.81;33.95605;939.1512;;;;
2024/02/15 11:35:30;;;;;;;1.1;0.7;;;;;;;20.74;34.09082;939.1167;;;;
2024/02/15 11:37:55;;;;;;;0.8;0.8;;;;;;;20.61;33.91797;939.1014;;;;
2024/02/15 11:40:19;;;;;;;0.6;0.6;;;;;;;20.26;33.31934;939.0287;;;;
2024/02/15 11:42:45;;;;;;;0.8;0.8;;;;;;;20.05;34.01465;939.0217;;;;
2024/02/15 11:45:09;;;;;;;0.9;0.7;;;;;;;20.02;34.61816;938.9802;;;;
2024/02/15 11:47:35;;;;;;;1.5;0.7;;;;;;;19.93;34.77539;938.9792;;;;
2024/02/15 11:49:59;;;;;;;0.8;0.8;;;;;;;19.78;34.53027;938.8833;;;;
2024/02/15 11:52:24;;;;;;;0.7;0.5;;;;;;;19.75;35.62402;938.7969;;;;
2024/02/15 11:54:49;;;;;;;1.2;0.6;;;;;;;19.72;35.56348;938.8105;;;;
2024/02/15 11:57:22;;;;;;;0.7;0.7;;;;;;;19.35;35.70801;938.7523;;;;
2024/02/15 11:59:52;;;;;;;1.5;0.8;;;;;;;19.34;37.14063;938.7171;;;;
2024/02/15 12:19:03;;;;;;;2.2;1.1;;;;;;;18.67;36.95605;938.4286;;;;
2024/02/15 12:21:26;;;;;;;1.3;0.8;;;;;;;18.56;37.69141;938.4666;;;;
2024/02/15 12:23:52;;;;;;;0.7;0.6;;;;;;;18.41;37.74805;938.4186;;;;
2024/02/15 12:26:17;;;;;;;0.6;0.6;;;;;;;18.37;38.04688;938.3809;;;;
2024/02/15 12:28:42;;;;;;;1.2;0.7;;;;;;;18.38;38.17578;938.4081;;;;
2024/02/15 12:31:08;;;;;;;0.7;0.6;;;;;;;18.33;38.74023;938.3212;;;;
2024/02/15 12:33:32;;;;;;;0.8;0.6;;;;;;;18.37;38.9082;938.2558;;;;
2024/02/15 12:35:57;;;;;;;2;0.6;;;;;;;18.25;38.4668;938.2567;;;;
2024/02/15 12:38:22;;;;;;;1;0.8;;;;;;;18.28;38.77148;938.235;;;;
2024/02/15 12:40:47;;;;;;;0.6;0.6;;;;;;;18.23;39.14941;938.22;;;;
2024/02/15 12:43:12;;;;;;;0.7;0.7;;;;;;;18.21;39.56738;938.1934;;;;
2024/02/15 12:45:37;;;;;;;0.8;0.7;;;;;;;18.22;39.41602;938.1711;;;;
2024/02/15 12:48:02;;;;;;;1.3;0.5;;;;;;;18.22;39.50977;938.1442;;;;
2024/02/15 12:50:28;;;;;;;0.6;0.6;;;;;;;18.17;39.52734;938.1178;;;;
2024/02/15 12:52:53;;;;;;;0.8;0.6;;;;;;;18.04;40.02832;938.1147;;;;
2024/02/15 12:55:19;;;;;;;0.8;0.6;;;;;;;18.07;39.43848;938.0408;;;;
2024/02/15 12:57:45;;;;;;;0.6;0.5;;;;;;;18.04;40.3418;938.0356;;;;
2024/02/15 13:00:17;;;;;;;1.5;0.6;;;;;;;18.04;40.52734;938.0461;;;;
2024/02/15 13:02:33;;;;;;;2.1;0.7;;;;;;;17.97;40.53223;937.9981;;;;
2024/02/15 13:04:59;;;;;;;0.5;0.5;;;;;;;17.97;40.38184;937.957;;;;
2024/02/15 13:07:24;;;;;;;2.2;0.7;;;;;;;17.97;41.33398;937.8691;;;;
2024/02/15 13:09:49;;;;;;;1.8;0.7;;;;;;;17.98;40.83496;937.902;;;;
2024/02/15 13:12:14;;;;;;;1.2;0.8;;;;;;;17.8;41.36426;937.96;;;;
2024/02/15 13:14:39;;;;;;;0.8;0.7;;;;;;;17.88;41.12695;937.8541;;;;
2024/02/15 13:17:05;;;;;;;0.7;0.5;;;;;;;17.91;41.08398;937.8397;;;;
2024/02/15 13:19:29;;;;;;;1.8;0.8;;;;;;;17.69;41.42285;937.8502;;;;
2024/02/15 13:21:57;;;;;;;0.8;0.7;;;;;;;17.77;41.52344;937.8808;;;;
2024/02/15 13:24:25;;;;;;;0.7;0.7;;;;;;;17.57;41.93457;937.7598;;;;
2024/02/15 13:26:46;;;;;;;0.7;0.5;;;;;;;17.7;42.95605;937.8306;;;;
2024/02/15 13:29:11;;;;;;;0.5;0.5;;;;;;;17.62;43.81934;937.8228;;;;
2024/02/15 13:31:36;;;;;;;0.7;0.7;;;;;;;17.5;44.78223;937.7433;;;;
2024/02/15 13:34:01;;;;;;;1;0.6;;;;;;;17.3;44.24023;937.7933;;;;
2024/02/15 13:36:26;;;;;;;0.6;0.6;;;;;;;17.22;44.24219;937.7269;;;;
2024/02/15 13:38:51;;;;;;;0.8;0.7;;;;;;;17.27;44.89648;937.711;;;;
2024/02/15 13:41:17;;;;;;;0.6;0.6;;;;;;;17.1;44.52051;937.7885;;;;
2024/02/15 13:43:43;;;;;;;1;0.6;;;;;;;16.97;44.06641;937.7428;;;;
2024/02/15 13:46:08;;;;;;;0.7;0.7;;;;;;;16.88;44.66016;937.753;;;;
2024/02/15 13:48:33;;;;;;;0.7;0.7;;;;;;;16.97;45.21484;937.6647;;;;
2024/02/15 13:50:58;;;;;;;1.1;0.7;;;;;;;16.95;45.27051;937.7132;;;;
2024/02/15 13:53:23;;;;;;;1;0.6;;;;;;;16.98;45.01855;937.6781;;;;
2024/02/15 13:55:48;;;;;;;0.7;0.7;;;;;;;16.9;46.26172;937.7108;;;;
2024/02/15 13:58:14;;;;;;;0.9;0.7;;;;;;;16.86;46.73145;937.7525;;;;
2024/02/15 14:00:41;;;;;;;0.7;0.6;;;;;;;16.87;46.07324;937.6953;;;;
2024/02/15 14:03:05;;;;;;;1;0.7;;;;;;;16.71;45.92871;937.6644;;;;
2024/02/15 14:05:28;;;;;;;0.8;0.7;;;;;;;16.66;45.30957;937.709;;;;
2024/02/15 14:07:55;;;;;;;0.8;0.8;;;;;;;16.71;45.59277;937.6772;;;;
2024/02/15 14:10:21;;;;;;;1.1;0.7;;;;;;;16.73;45.91895;937.64;;;;
2024/02/15 14:12:44;;;;;;;0.7;0.7;;;;;;;16.59;45.5918;937.6238;;;;
2024/02/15 14:15:10;;;;;;;0.7;0.6;;;;;;;16.64;46.02539;937.6395;;;;
2024/02/15 14:17:35;;;;;;;0.8;0.8;;;;;;;16.53;46.31445;937.6914;;;;
2024/02/15 14:20:01;;;;;;;2.3;0.9;;;;;;;16.3;47.18164;937.6622;;;;
2024/02/15 14:22:28;;;;;;;1.9;0.8;;;;;;;16.23;47.55566;937.6358;;;;
2024/02/15 14:24:49;;;;;;;1;0.9;;;;;;;16.05;47.58203;937.6941;;;;
2024/02/15 14:27:14;;;;;;;0.7;0.6;;;;;;;15.81;47.88086;937.7123;;;;
2024/02/15 14:32:59;;;;;;;0.9;0.8;;;;;;;15.77;47.95801;937.7;;;;
2024/02/15 14:34:30;;;;;;;0.7;0.7;;;;;;;15.57;48.85742;937.6423;;;;
2024/02/15 14:36:55;;;;;;;1.5;0.8;;;;;;;15.53;49.01563;937.6675;;;;
2024/02/15 14:39:21;;;;;;;1.3;0.7;;;;;;;15.42;48.86621;937.6767;;;;
2024/02/15 14:41:45;;;;;;;2;0.9;;;;;;;15.4;49.25488;937.6983;;;;
2024/02/15 14:44:10;;;;;;;2.1;1;;;;;;;15.45;49.16895;937.6836;;;;
2024/02/15 14:46:36;;;;;;;1.9;0.8;;;;;;;15.44;49.45703;937.707;;;;
2024/02/15 14:49:01;;;;;;;2.5;0.7;;;;;;;15.44;49.65332;937.7119;;;;